createdAt,value
2019-05-02T10:27:04.151Z,5.97
2019-05-02T10:29:28.464Z,6.60
2019-05-02T10:31:58.002Z,7.20
2019-05-02T10:34:27.796Z,6.40
2019-05-02T10:36:58.937Z,5.77
2019-05-02T10:39:33.278Z,6.00
2019-05-02T10:41:59.448Z,6.30
2019-05-02T10:44:32.709Z,5.97
2019-05-02T10:47:02.679Z,6.03
2019-05-02T10:49:53.345Z,5.33
2019-05-02T10:52:29.630Z,6.43
2019-05-02T10:54:53.698Z,5.73
2019-05-02T10:57:22.707Z,5.40
2019-05-02T10:59:52.591Z,5.17
2019-05-02T11:02:37.236Z,5.33
2019-05-02T11:05:16.958Z,4.93
2019-05-02T11:07:43.924Z,5.20
2019-05-02T11:10:13.159Z,6.43
2019-05-02T11:12:47.457Z,6.00
2019-05-02T11:15:35.194Z,5.37
2019-05-02T11:18:05.081Z,5.40
2019-05-02T11:20:34.397Z,5.37
2019-05-02T11:23:03.579Z,4.83
2019-05-02T11:25:32.517Z,5.43
2019-05-02T11:28:06.988Z,4.80
2019-05-02T11:30:34.053Z,5.37
2019-05-02T11:33:03.206Z,4.60
2019-05-02T11:35:32.305Z,4.47
2019-05-02T11:38:02.499Z,5.63
2019-05-02T11:40:32.364Z,4.47
2019-05-02T11:43:04.971Z,4.63
2019-05-02T11:45:32.749Z,5.70
2019-05-02T11:48:08.878Z,4.90
2019-05-02T11:50:35.481Z,5.27
2019-05-02T11:53:09.157Z,5.87
2019-05-02T11:55:34.717Z,6.23
2019-05-02T11:58:08.250Z,5.90
2019-05-02T12:00:34.568Z,6.30
2019-05-02T12:03:15.532Z,6.10
2019-05-02T12:05:44.643Z,6.97
2019-05-02T12:08:13.639Z,6.70
2019-05-02T12:10:43.072Z,6.17
2019-05-02T12:13:16.013Z,5.40
2019-05-02T12:15:44.408Z,6.43
2019-05-02T12:18:13.561Z,6.23
2019-05-02T12:20:42.875Z,5.67
2019-05-02T12:23:13.003Z,6.80
2019-05-02T12:25:42.426Z,7.53
2019-05-02T12:28:12.130Z,7.60
2019-05-02T12:30:41.939Z,6.00
2019-05-02T12:33:12.365Z,6.30
2019-05-02T12:35:43.276Z,6.67
2019-05-02T12:38:12.964Z,6.03
2019-05-02T12:40:42.563Z,6.03
2019-05-02T12:43:12.130Z,5.97
2019-05-02T12:45:42.242Z,5.37
2019-05-02T12:48:12.914Z,5.60
2019-05-02T12:50:42.772Z,5.50
2019-05-02T12:53:12.567Z,4.63
2019-05-02T12:55:42.292Z,5.70
2019-05-02T12:58:12.513Z,5.60
2019-05-02T13:00:43.207Z,4.90
2019-05-02T13:03:19.333Z,5.40
2019-05-02T13:05:48.561Z,4.60
2019-05-02T13:08:17.479Z,4.50
2019-05-02T13:11:08.474Z,5.30
2019-05-02T13:13:37.536Z,5.37
2019-05-02T13:16:06.700Z,4.87
2019-05-02T13:18:37.304Z,5.30
2019-05-02T13:21:15.161Z,5.17
2019-05-02T13:23:53.743Z,5.70
2019-05-02T13:26:27.097Z,4.93
2019-05-02T13:28:54.168Z,5.70
2019-05-02T13:31:42.757Z,6.00
2019-05-02T13:34:18.472Z,5.70
2019-05-02T13:36:48.619Z,5.73
2019-05-02T13:39:37.436Z,5.23
2019-05-02T13:42:06.724Z,5.10
2019-05-02T13:44:41.667Z,4.90
2019-05-02T13:47:12.820Z,5.93
2019-05-02T13:49:53.678Z,5.93
2019-05-02T13:52:12.629Z,5.93
2019-05-02T13:54:42.656Z,5.50
2019-05-02T13:57:12.178Z,4.37
2019-05-02T13:59:42.469Z,4.67
2019-05-02T14:02:33.539Z,5.23
2019-05-02T14:05:02.491Z,4.50
2019-05-02T14:07:32.655Z,4.90
2019-05-02T14:10:05.804Z,5.40
2019-05-02T14:12:53.806Z,4.50
2019-05-02T14:15:25.235Z,5.20
2019-05-02T14:17:54.712Z,4.50
2019-05-02T14:20:23.752Z,4.40
2019-05-02T14:22:53.308Z,4.80
2019-05-02T14:25:22.723Z,5.27
2019-05-02T14:27:55.686Z,5.00
2019-05-02T14:30:36.284Z,4.60
2019-05-02T14:32:58.698Z,4.60
2019-05-02T14:35:30.136Z,4.60
2019-05-02T14:38:13.268Z,4.80
2019-05-02T14:40:52.025Z,5.90
2019-05-02T14:43:44.501Z,5.50
2019-05-02T14:46:12.580Z,5.43
2019-05-02T14:48:45.359Z,5.73
2019-05-02T14:51:16.654Z,4.87
2019-05-02T14:53:44.159Z,4.90
2019-05-02T14:56:18.587Z,4.80
2019-05-02T14:58:48.115Z,4.77
2019-05-02T15:01:21.474Z,4.50
2019-05-02T15:03:48.123Z,4.80
2019-05-02T15:06:17.423Z,4.20
2019-05-02T15:08:46.829Z,4.27
2019-05-02T15:11:15.871Z,4.13
2019-05-02T15:13:45.135Z,5.40
2019-05-02T15:16:17.797Z,5.37
2019-05-02T15:18:47.641Z,4.17
2019-05-02T15:21:22.928Z,4.47
2019-05-02T15:23:54.310Z,5.40
2019-05-02T15:26:29.375Z,5.33
2019-05-02T15:28:53.841Z,6.20
2019-05-02T15:31:29.211Z,4.97
2019-05-02T15:34:08.929Z,4.23
2019-05-02T15:36:44.037Z,4.80
2019-05-02T15:41:44.819Z,4.70
2019-05-02T15:44:12.618Z,4.07
2019-05-02T15:46:42.494Z,4.70
2019-05-02T15:49:12.286Z,4.70
2019-05-02T15:51:43.693Z,4.57
2019-05-02T15:54:12.630Z,4.00
2019-05-02T15:57:05.534Z,4.47
2019-05-02T15:59:37.506Z,3.00
2019-05-02T16:02:12.954Z,3.30
2019-05-02T16:04:42.279Z,3.93
2019-05-02T16:07:12.127Z,3.43
2019-05-02T16:09:41.799Z,4.03
2019-05-02T16:12:12.187Z,3.70
2019-05-02T16:14:42.692Z,3.27
2019-05-02T16:17:12.587Z,3.77
2019-05-02T16:19:47.149Z,2.90
2019-05-02T16:22:17.702Z,3.63
2019-05-02T16:24:49.114Z,7.60
2019-05-02T16:27:23.700Z,4.80
2019-05-02T16:29:49.240Z,6.80
2019-05-02T16:32:37.898Z,7.60
2019-05-02T16:35:15.586Z,5.10
2019-05-02T16:37:41.994Z,5.70
2019-05-02T16:40:12.039Z,5.10
2019-05-02T16:42:41.945Z,3.37
2019-05-02T16:45:12.023Z,4.40
2019-05-02T16:47:42.274Z,4.63
2019-05-02T16:50:12.358Z,4.60
2019-05-02T16:52:43.675Z,3.70
2019-05-02T16:55:21.149Z,4.00
2019-05-02T16:57:45.726Z,4.53
2019-05-02T17:00:22.535Z,4.10
2019-05-02T17:02:52.079Z,4.40
2019-05-02T17:05:22.122Z,4.00
2019-05-02T17:08:16.735Z,3.83
2019-05-02T17:11:15.650Z,4.57
2019-05-02T17:13:44.163Z,4.60
2019-05-02T17:16:17.160Z,4.20
2019-05-02T17:18:48.243Z,4.33
2019-05-02T17:21:15.344Z,5.37
2019-05-02T17:23:46.844Z,4.10
2019-05-02T17:26:15.370Z,4.90
2019-05-02T17:28:47.052Z,4.43
2019-05-02T17:31:19.281Z,3.57
2019-05-02T17:33:50.494Z,4.10
2019-05-02T17:36:23.642Z,3.80
2019-05-02T17:38:47.896Z,3.73
2019-05-02T17:41:16.931Z,4.20
2019-05-02T17:43:45.999Z,4.43
2019-05-02T17:46:18.345Z,4.03
2019-05-02T17:48:47.787Z,5.63
2019-05-02T17:51:45.819Z,5.07
2019-05-02T17:54:17.552Z,3.60
2019-05-02T17:56:46.256Z,3.90
2019-05-02T17:59:17.027Z,4.73
2019-05-02T18:01:46.136Z,5.50
2019-05-02T18:04:16.565Z,5.33
2019-05-02T18:06:46.963Z,5.60
2019-05-02T18:09:16.631Z,4.70
2019-05-02T18:11:45.950Z,4.90
2019-05-02T18:14:19.740Z,5.43
2019-05-02T18:16:47.068Z,5.50
2019-05-02T18:19:23.595Z,6.33
2019-05-02T18:21:48.150Z,5.23
2019-05-02T18:24:17.392Z,5.80
2019-05-02T18:26:46.847Z,5.43
2019-05-02T18:29:15.887Z,5.13
2019-05-02T18:31:47.277Z,6.03
2019-05-02T18:34:23.710Z,5.23
2019-05-02T18:36:46.424Z,6.53
2019-05-02T18:39:15.738Z,5.77
2019-05-02T18:41:46.358Z,6.03
2019-05-02T18:44:17.097Z,5.83
2019-05-02T18:46:46.390Z,4.00
2019-05-02T18:49:17.171Z,5.63
2019-05-02T18:51:48.259Z,6.00
2019-05-02T18:54:17.599Z,5.10
2019-05-02T18:56:50.264Z,5.80
2019-05-02T18:59:19.756Z,5.10
2019-05-02T19:01:52.676Z,5.97
2019-05-02T19:04:21.928Z,5.00
2019-05-02T19:06:51.922Z,5.60
2019-05-02T19:09:24.952Z,5.33
2019-05-02T19:11:52.402Z,5.80
2019-05-02T19:14:24.999Z,5.37
2019-05-02T19:16:52.237Z,5.33
2019-05-02T19:19:22.568Z,5.77
2019-05-02T19:21:52.356Z,5.70
2019-05-02T19:24:22.756Z,5.50
2019-05-02T19:26:53.384Z,6.60
2019-05-02T19:29:31.859Z,6.30
2019-05-02T19:32:01.886Z,4.77
2019-05-02T19:34:32.342Z,5.80
2019-05-02T19:37:02.998Z,5.20
2019-05-02T19:39:33.939Z,5.23
2019-05-02T19:42:03.542Z,4.60
2019-05-02T19:44:34.201Z,5.17
2019-05-02T19:47:03.586Z,5.10
2019-05-02T19:49:33.008Z,5.47
2019-05-02T19:52:02.475Z,4.60
2019-05-02T19:54:39.418Z,5.93
2019-05-02T19:57:02.775Z,6.07
2019-05-02T19:59:32.181Z,5.60
2019-05-02T20:02:04.902Z,5.53
2019-05-02T20:04:32.948Z,4.77
2019-05-02T20:07:04.312Z,5.27
2019-05-02T20:09:33.509Z,4.87
2019-05-02T20:12:06.176Z,4.97
2019-05-02T20:14:33.647Z,4.67
2019-05-02T20:17:03.227Z,4.50
2019-05-02T20:19:34.878Z,5.20
2019-05-02T20:22:14.246Z,4.50
2019-05-02T20:24:59.934Z,4.40
2019-05-02T20:27:27.905Z,4.87
2019-05-02T20:29:55.867Z,4.50
2019-05-02T20:32:25.260Z,5.30
2019-05-02T20:34:54.223Z,4.57
2019-05-02T20:37:23.568Z,5.20
2019-05-02T20:39:52.873Z,6.67
2019-05-02T20:42:21.818Z,4.90
2019-05-02T20:44:52.638Z,5.50
2019-05-02T20:47:24.502Z,5.70
2019-05-02T20:49:53.551Z,6.17
2019-05-02T20:52:23.220Z,5.47
2019-05-02T20:54:52.539Z,6.87
2019-05-02T20:57:21.686Z,5.53
2019-05-02T20:59:52.576Z,5.57
2019-05-02T21:02:22.182Z,6.77
2019-05-02T21:04:52.149Z,6.27
2019-05-02T21:07:38.166Z,6.10
2019-05-02T21:10:18.623Z,6.10
2019-05-02T21:12:47.861Z,6.10
2019-05-02T21:15:18.312Z,6.63
2019-05-02T21:17:47.676Z,6.80
2019-05-02T21:20:16.712Z,6.40
2019-05-02T21:22:45.984Z,6.73
2019-05-02T21:25:15.267Z,6.77
2019-05-02T21:27:44.308Z,6.77
2019-05-02T21:30:14.139Z,6.77
2019-05-02T21:32:43.108Z,6.50
2019-05-02T21:35:12.115Z,6.57
2019-05-02T21:37:42.484Z,7.07
2019-05-02T21:40:12.155Z,7.17
2019-05-02T21:42:42.499Z,7.30
2019-05-02T21:45:13.154Z,6.37
2019-05-02T21:47:42.574Z,6.37
2019-05-02T21:50:18.331Z,7.10
2019-05-02T21:53:18.739Z,6.77
2019-05-02T21:55:56.878Z,6.67
2019-05-02T21:58:25.929Z,7.40
2019-05-02T22:01:08.109Z,6.50
2019-05-02T22:03:38.283Z,6.40
2019-05-02T22:06:07.288Z,7.90
2019-05-02T22:08:36.323Z,7.70
2019-05-02T22:11:05.499Z,7.23
2019-05-02T22:13:34.750Z,8.30
2019-05-02T22:16:04.058Z,7.87
2019-05-02T22:18:32.950Z,7.30
2019-05-02T22:21:01.869Z,6.47
2019-05-02T22:23:31.843Z,7.10
2019-05-02T22:26:02.355Z,6.57
2019-05-02T22:28:32.747Z,6.53
2019-05-02T22:31:03.225Z,6.17
2019-05-02T22:33:33.141Z,6.30
2019-05-02T22:36:02.565Z,5.47
2019-05-02T22:38:39.627Z,5.30
2019-05-02T22:41:08.930Z,5.77
2019-05-02T22:43:38.230Z,5.93
2019-05-02T22:46:08.835Z,5.30
2019-05-02T22:48:37.723Z,5.37
2019-05-02T22:51:07.023Z,4.70
2019-05-02T22:53:36.215Z,4.10
2019-05-02T22:56:05.627Z,2.50
2019-05-02T22:58:34.950Z,3.50
2019-05-02T23:01:06.154Z,3.37
2019-05-02T23:03:35.471Z,2.60
2019-05-02T23:06:04.464Z,2.63
2019-05-02T23:08:34.083Z,2.43
2019-05-02T23:11:03.511Z,3.13
2019-05-02T23:13:32.547Z,2.70
2019-05-02T23:16:02.888Z,3.90
2019-05-02T23:18:32.590Z,3.10
2019-05-02T23:21:02.147Z,2.83
2019-05-02T23:23:32.744Z,3.47
2019-05-02T23:26:31.759Z,3.40
2019-05-02T23:29:02.309Z,3.17
2019-05-02T23:31:32.067Z,2.83
2019-05-02T23:34:07.487Z,2.70
2019-05-02T23:36:36.524Z,2.70
2019-05-02T23:39:09.168Z,2.57
2019-05-02T23:41:38.559Z,2.13
2019-05-02T23:44:07.904Z,2.67
2019-05-02T23:46:37.596Z,2.67
2019-05-02T23:49:06.564Z,2.30
2019-05-02T23:51:36.213Z,2.00
2019-05-02T23:54:05.488Z,2.03
2019-05-02T23:56:34.791Z,2.10
2019-05-02T23:59:04.113Z,2.43
